sensor_id;sensor_type;location;lat;lon;timestamp;P1;durP1;ratioP1;P2;durP2;ratioP2
24259;SDS011;12384;48.112;18.418;2023-01-16T00:00:31;18.43;;;16.70;;
24259;SDS011;12384;48.112;18.418;2023-01-16T00:03:00;17.73;;;16.03;;
24259;SDS011;12384;48.112;18.418;2023-01-16T00:05:28;19.43;;;17.63;;
24259;SDS011;12384;48.112;18.418;2023-01-16T00:07:56;18.57;;;16.70;;
24259;SDS011;12384;48.112;18.418;2023-01-16T00:10:25;19.37;;;17.37;;
24259;SDS011;12384;48.112;18.418;2023-01-16T00:12:55;17.87;;;16.07;;
24259;SDS011;12384;48.112;18.418;2023-01-16T00:15:23;18.67;;;17.07;;
24259;SDS011;12384;48.112;18.418;2023-01-16T00:17:51;24.00;;;18.63;;
24259;SDS011;12384;48.112;18.418;2023-01-16T00:20:20;21.90;;;19.27;;
24259;SDS011;12384;48.112;18.418;2023-01-16T00:22:49;19.80;;;17.90;;
24259;SDS011;12384;48.112;18.418;2023-01-16T00:25:17;22.60;;;19.70;;
24259;SDS011;12384;48.112;18.418;2023-01-16T00:27:46;19.73;;;17.70;;
24259;SDS011;12384;48.112;18.418;2023-01-16T00:30:15;21.07;;;18.97;;
24259;SDS011;12384;48.112;18.418;2023-01-16T00:32:46;21.60;;;18.97;;
24259;SDS011;12384;48.112;18.418;2023-01-16T00:35:14;20.87;;;18.77;;
24259;SDS011;12384;48.112;18.418;2023-01-16T00:37:42;19.57;;;17.77;;
24259;SDS011;12384;48.112;18.418;2023-01-16T00:40:11;21.97;;;18.70;;
24259;SDS011;12384;48.112;18.418;2023-01-16T00:42:40;20.20;;;18.17;;
24259;SDS011;12384;48.112;18.418;2023-01-16T00:45:08;19.93;;;17.93;;
24259;SDS011;12384;48.112;18.418;2023-01-16T00:47:38;20.67;;;18.57;;
24259;SDS011;12384;48.112;18.418;2023-01-16T00:50:07;22.20;;;19.93;;
24259;SDS011;12384;48.112;18.418;2023-01-16T00:52:36;20.97;;;18.87;;
24259;SDS011;12384;48.112;18.418;2023-01-16T00:55:05;20.60;;;18.50;;
24259;SDS011;12384;48.112;18.418;2023-01-16T00:57:33;21.30;;;19.17;;
24259;SDS011;12384;48.112;18.418;2023-01-16T01:00:02;19.47;;;17.50;;
24259;SDS011;12384;48.112;18.418;2023-01-16T01:02:31;20.37;;;18.30;;
24259;SDS011;12384;48.112;18.418;2023-01-16T01:05:01;19.57;;;17.70;;
24259;SDS011;12384;48.112;18.418;2023-01-16T01:07:30;23.67;;;18.70;;
24259;SDS011;12384;48.112;18.418;2023-01-16T01:09:58;19.37;;;17.53;;
24259;SDS011;12384;48.112;18.418;2023-01-16T01:12:27;22.67;;;19.47;;
24259;SDS011;12384;48.112;18.418;2023-01-16T01:14:55;24.73;;;19.27;;
24259;SDS011;12384;48.112;18.418;2023-01-16T01:17:23;20.63;;;18.47;;
24259;SDS011;12384;48.112;18.418;2023-01-16T01:19:52;20.50;;;18.40;;
24259;SDS011;12384;48.112;18.418;2023-01-16T01:22:21;20.77;;;18.73;;
24259;SDS011;12384;48.112;18.418;2023-01-16T01:24:50;23.73;;;19.40;;
24259;SDS011;12384;48.112;18.418;2023-01-16T01:27:18;21.40;;;19.20;;
24259;SDS011;12384;48.112;18.418;2023-01-16T01:29:47;20.47;;;18.43;;
24259;SDS011;12384;48.112;18.418;2023-01-16T01:32:15;23.57;;;19.73;;
24259;SDS011;12384;48.112;18.418;2023-01-16T01:34:43;23.17;;;19.47;;
24259;SDS011;12384;48.112;18.418;2023-01-16T01:37:12;23.57;;;19.60;;
24259;SDS011;12384;48.112;18.418;2023-01-16T01:39:41;20.90;;;18.80;;
24259;SDS011;12384;48.112;18.418;2023-01-16T01:42:10;32.47;;;20.50;;
24259;SDS011;12384;48.112;18.418;2023-01-16T01:44:57;26.97;;;20.87;;
24259;SDS011;12384;48.112;18.418;2023-01-16T01:47:33;34.60;;;22.53;;
24259;SDS011;12384;48.112;18.418;2023-01-16T01:50:11;51.63;;;24.30;;
24259;SDS011;12384;48.112;18.418;2023-01-16T01:52:43;23.23;;;20.73;;
24259;SDS011;12384;48.112;18.418;2023-01-16T01:55:13;23.80;;;20.33;;
24259;SDS011;12384;48.112;18.418;2023-01-16T01:57:44;21.50;;;19.40;;
24259;SDS011;12384;48.112;18.418;2023-01-16T02:00:16;27.47;;;20.67;;
24259;SDS011;12384;48.112;18.418;2023-01-16T02:02:47;27.80;;;19.50;;
24259;SDS011;12384;48.112;18.418;2023-01-16T02:05:23;29.30;;;19.77;;
24259;SDS011;12384;48.112;18.418;2023-01-16T02:07:55;20.10;;;18.00;;
24259;SDS011;12384;48.112;18.418;2023-01-16T02:10:29;27.53;;;19.43;;
24259;SDS011;12384;48.112;18.418;2023-01-16T02:13:01;21.73;;;18.50;;
24259;SDS011;12384;48.112;18.418;2023-01-16T02:15:30;25.80;;;18.83;;
24259;SDS011;12384;48.112;18.418;2023-01-16T02:17:59;21.17;;;18.73;;
24259;SDS011;12384;48.112;18.418;2023-01-16T02:20:48;22.97;;;17.63;;
24259;SDS011;12384;48.112;18.418;2023-01-16T02:29:31;21.80;;;18.40;;
24259;SDS011;12384;48.112;18.418;2023-01-16T02:32:30;20.70;;;18.57;;
24259;SDS011;12384;48.112;18.418;2023-01-16T02:35:13;21.20;;;19.00;;
24259;SDS011;12384;48.112;18.418;2023-01-16T02:37:54;19.47;;;17.47;;
24259;SDS011;12384;48.112;18.418;2023-01-16T02:40:31;18.40;;;16.63;;
24259;SDS011;12384;48.112;18.418;2023-01-16T02:43:14;19.13;;;17.23;;
24259;SDS011;12384;48.112;18.418;2023-01-16T02:45:52;19.73;;;17.83;;
24259;SDS011;12384;48.112;18.418;2023-01-16T02:48:32;19.10;;;17.30;;
24259;SDS011;12384;48.112;18.418;2023-01-16T02:51:10;20.53;;;18.10;;
24259;SDS011;12384;48.112;18.418;2023-01-16T02:53:44;20.27;;;18.07;;
24259;SDS011;12384;48.112;18.418;2023-01-16T02:56:18;19.67;;;17.63;;
24259;SDS011;12384;48.112;18.418;2023-01-16T02:58:54;19.67;;;17.63;;
24259;SDS011;12384;48.112;18.418;2023-01-16T03:01:23;19.17;;;17.07;;
24259;SDS011;12384;48.112;18.418;2023-01-16T03:04:04;30.93;;;20.23;;
24259;SDS011;12384;48.112;18.418;2023-01-16T03:06:54;18.77;;;17.07;;
24259;SDS011;12384;48.112;18.418;2023-01-16T03:09:33;21.53;;;18.07;;
24259;SDS011;12384;48.112;18.418;2023-01-16T03:12:09;32.50;;;18.53;;
24259;SDS011;12384;48.112;18.418;2023-01-16T03:14:51;19.83;;;17.87;;
24259;SDS011;12384;48.112;18.418;2023-01-16T03:17:31;33.97;;;19.97;;
24259;SDS011;12384;48.112;18.418;2023-01-16T03:20:18;25.43;;;19.60;;
24259;SDS011;12384;48.112;18.418;2023-01-16T03:22:59;19.67;;;17.83;;
24259;SDS011;12384;48.112;18.418;2023-01-16T03:25:35;41.23;;;19.77;;
24259;SDS011;12384;48.112;18.418;2023-01-16T03:28:10;28.13;;;19.83;;
24259;SDS011;12384;48.112;18.418;2023-01-16T03:30:46;23.83;;;21.53;;
24259;SDS011;12384;48.112;18.418;2023-01-16T03:33:20;21.73;;;19.53;;
24259;SDS011;12384;48.112;18.418;2023-01-16T03:36:01;21.47;;;19.47;;
24259;SDS011;12384;48.112;18.418;2023-01-16T03:38:35;20.67;;;17.47;;
24259;SDS011;12384;48.112;18.418;2023-01-16T03:41:05;35.50;;;18.87;;
24259;SDS011;12384;48.112;18.418;2023-01-16T03:43:37;21.43;;;18.33;;
24259;SDS011;12384;48.112;18.418;2023-01-16T03:46:07;18.00;;;16.40;;
24259;SDS011;12384;48.112;18.418;2023-01-16T03:48:40;55.17;;;22.70;;
24259;SDS011;12384;48.112;18.418;2023-01-16T03:51:15;21.87;;;19.47;;
24259;SDS011;12384;48.112;18.418;2023-01-16T03:53:50;18.77;;;16.87;;
24259;SDS011;12384;48.112;18.418;2023-01-16T03:56:26;30.83;;;18.40;;
24259;SDS011;12384;48.112;18.418;2023-01-16T03:58:59;20.60;;;17.77;;
24259;SDS011;12384;48.112;18.418;2023-01-16T04:01:32;21.83;;;18.83;;
24259;SDS011;12384;48.112;18.418;2023-01-16T04:04:05;19.17;;;17.10;;
24259;SDS011;12384;48.112;18.418;2023-01-16T04:06:40;19.93;;;17.93;;
24259;SDS011;12384;48.112;18.418;2023-01-16T04:09:13;18.70;;;16.67;;
24259;SDS011;12384;48.112;18.418;2023-01-16T04:11:48;19.27;;;17.37;;
24259;SDS011;12384;48.112;18.418;2023-01-16T04:14:18;19.03;;;17.13;;
24259;SDS011;12384;48.112;18.418;2023-01-16T04:16:50;20.50;;;18.30;;
24259;SDS011;12384;48.112;18.418;2023-01-16T04:19:19;19.77;;;17.77;;
24259;SDS011;12384;48.112;18.418;2023-01-16T04:21:51;21.17;;;17.47;;
24259;SDS011;12384;48.112;18.418;2023-01-16T04:24:19;19.07;;;17.03;;
24259;SDS011;12384;48.112;18.418;2023-01-16T04:26:48;21.57;;;18.07;;
24259;SDS011;12384;48.112;18.418;2023-01-16T04:29:17;20.73;;;18.40;;
24259;SDS011;12384;48.112;18.418;2023-01-16T04:31:46;25.27;;;19.57;;
24259;SDS011;12384;48.112;18.418;2023-01-16T04:34:14;25.43;;;19.50;;
24259;SDS011;12384;48.112;18.418;2023-01-16T04:36:42;25.50;;;21.53;;
24259;SDS011;12384;48.112;18.418;2023-01-16T04:39:12;25.83;;;20.63;;
24259;SDS011;12384;48.112;18.418;2023-01-16T04:41:40;24.63;;;20.70;;
24259;SDS011;12384;48.112;18.418;2023-01-16T04:44:09;27.97;;;21.63;;
24259;SDS011;12384;48.112;18.418;2023-01-16T04:46:39;32.83;;;22.33;;
24259;SDS011;12384;48.112;18.418;2023-01-16T04:49:07;36.83;;;23.50;;
24259;SDS011;12384;48.112;18.418;2023-01-16T04:51:36;36.53;;;24.87;;
24259;SDS011;12384;48.112;18.418;2023-01-16T04:54:05;39.17;;;25.70;;
24259;SDS011;12384;48.112;18.418;2023-01-16T04:56:35;35.03;;;24.00;;
24259;SDS011;12384;48.112;18.418;2023-01-16T04:59:05;45.73;;;25.57;;
24259;SDS011;12384;48.112;18.418;2023-01-16T05:01:33;30.97;;;23.27;;
24259;SDS011;12384;48.112;18.418;2023-01-16T05:04:04;46.30;;;24.33;;
24259;SDS011;12384;48.112;18.418;2023-01-16T05:06:34;34.57;;;22.47;;
24259;SDS011;12384;48.112;18.418;2023-01-16T05:09:03;28.83;;;21.50;;
24259;SDS011;12384;48.112;18.418;2023-01-16T05:11:33;26.40;;;20.57;;
24259;SDS011;12384;48.112;18.418;2023-01-16T05:14:03;24.37;;;20.60;;
24259;SDS011;12384;48.112;18.418;2023-01-16T05:16:34;45.70;;;21.90;;
24259;SDS011;12384;48.112;18.418;2023-01-16T05:19:03;29.77;;;21.67;;
24259;SDS011;12384;48.112;18.418;2023-01-16T05:21:32;55.00;;;23.40;;
24259;SDS011;12384;48.112;18.418;2023-01-16T05:24:00;39.10;;;24.03;;
24259;SDS011;12384;48.112;18.418;2023-01-16T05:26:29;29.03;;;21.23;;
24259;SDS011;12384;48.112;18.418;2023-01-16T05:28:57;29.90;;;21.10;;
24259;SDS011;12384;48.112;18.418;2023-01-16T05:31:27;27.00;;;19.17;;
24259;SDS011;12384;48.112;18.418;2023-01-16T05:33:55;28.87;;;20.03;;
24259;SDS011;12384;48.112;18.418;2023-01-16T05:36:24;29.30;;;19.40;;
24259;SDS011;12384;48.112;18.418;2023-01-16T05:38:52;24.63;;;18.43;;
24259;SDS011;12384;48.112;18.418;2023-01-16T05:41:21;26.87;;;18.30;;
24259;SDS011;12384;48.112;18.418;2023-01-16T05:43:49;22.67;;;17.73;;
24259;SDS011;12384;48.112;18.418;2023-01-16T05:46:18;25.00;;;18.57;;
24259;SDS011;12384;48.112;18.418;2023-01-16T05:48:48;20.80;;;15.97;;
24259;SDS011;12384;48.112;18.418;2023-01-16T05:51:16;24.67;;;16.97;;
24259;SDS011;12384;48.112;18.418;2023-01-16T05:53:48;23.23;;;16.47;;
24259;SDS011;12384;48.112;18.418;2023-01-16T05:56:18;22.63;;;16.80;;
24259;SDS011;12384;48.112;18.418;2023-01-16T05:58:49;20.73;;;16.03;;
24259;SDS011;12384;48.112;18.418;2023-01-16T06:01:17;19.13;;;14.93;;
24259;SDS011;12384;48.112;18.418;2023-01-16T06:03:45;21.23;;;14.70;;
24259;SDS011;12384;48.112;18.418;2023-01-16T06:06:15;18.30;;;15.07;;
24259;SDS011;12384;48.112;18.418;2023-01-16T06:08:45;18.80;;;14.77;;
24259;SDS011;12384;48.112;18.418;2023-01-16T06:11:14;22.07;;;15.03;;
24259;SDS011;12384;48.112;18.418;2023-01-16T06:13:42;19.10;;;14.10;;
24259;SDS011;12384;48.112;18.418;2023-01-16T06:16:12;19.47;;;13.70;;
24259;SDS011;12384;48.112;18.418;2023-01-16T06:18:41;21.40;;;16.30;;
24259;SDS011;12384;48.112;18.418;2023-01-16T06:21:10;23.33;;;16.53;;
24259;SDS011;12384;48.112;18.418;2023-01-16T06:23:39;20.03;;;16.27;;
24259;SDS011;12384;48.112;18.418;2023-01-16T06:26:07;17.20;;;15.37;;
24259;SDS011;12384;48.112;18.418;2023-01-16T06:28:36;31.90;;;19.53;;
24259;SDS011;12384;48.112;18.418;2023-01-16T06:31:05;27.30;;;18.83;;
24259;SDS011;12384;48.112;18.418;2023-01-16T06:33:34;29.33;;;18.13;;
24259;SDS011;12384;48.112;18.418;2023-01-16T06:36:03;26.33;;;17.63;;
24259;SDS011;12384;48.112;18.418;2023-01-16T06:38:32;40.37;;;23.23;;
24259;SDS011;12384;48.112;18.418;2023-01-16T06:41:02;33.77;;;21.43;;
24259;SDS011;12384;48.112;18.418;2023-01-16T06:43:30;24.53;;;18.27;;
24259;SDS011;12384;48.112;18.418;2023-01-16T06:45:59;23.20;;;17.67;;
24259;SDS011;12384;48.112;18.418;2023-01-16T06:48:27;30.07;;;19.67;;
24259;SDS011;12384;48.112;18.418;2023-01-16T06:50:55;21.93;;;16.27;;
24259;SDS011;12384;48.112;18.418;2023-01-16T06:53:25;50.50;;;22.97;;
24259;SDS011;12384;48.112;18.418;2023-01-16T06:55:55;33.33;;;19.50;;
24259;SDS011;12384;48.112;18.418;2023-01-16T06:58:23;24.63;;;17.87;;
24259;SDS011;12384;48.112;18.418;2023-01-16T07:00:52;34.30;;;20.97;;
24259;SDS011;12384;48.112;18.418;2023-01-16T07:03:22;29.20;;;19.13;;
24259;SDS011;12384;48.112;18.418;2023-01-16T07:05:51;22.50;;;17.43;;
24259;SDS011;12384;48.112;18.418;2023-01-16T07:08:19;21.33;;;16.50;;
24259;SDS011;12384;48.112;18.418;2023-01-16T07:10:48;20.73;;;15.63;;
24259;SDS011;12384;48.112;18.418;2023-01-16T07:13:17;22.23;;;16.53;;
24259;SDS011;12384;48.112;18.418;2023-01-16T07:15:53;27.57;;;16.80;;
24259;SDS011;12384;48.112;18.418;2023-01-16T07:18:40;28.37;;;18.77;;
24259;SDS011;12384;48.112;18.418;2023-01-16T07:21:32;38.17;;;20.77;;
24259;SDS011;12384;48.112;18.418;2023-01-16T07:24:18;28.30;;;18.43;;
24259;SDS011;12384;48.112;18.418;2023-01-16T07:26:52;33.33;;;19.17;;
24259;SDS011;12384;48.112;18.418;2023-01-16T07:29:25;29.27;;;18.17;;
24259;SDS011;12384;48.112;18.418;2023-01-16T07:31:55;30.10;;;18.87;;
24259;SDS011;12384;48.112;18.418;2023-01-16T07:34:25;23.93;;;16.60;;
24259;SDS011;12384;48.112;18.418;2023-01-16T07:36:53;23.17;;;15.80;;
24259;SDS011;12384;48.112;18.418;2023-01-16T07:39:22;24.90;;;16.93;;
24259;SDS011;12384;48.112;18.418;2023-01-16T07:41:50;27.13;;;17.40;;
24259;SDS011;12384;48.112;18.418;2023-01-16T07:44:25;25.60;;;17.23;;
24259;SDS011;12384;48.112;18.418;2023-01-16T07:46:53;34.63;;;18.70;;
24259;SDS011;12384;48.112;18.418;2023-01-16T07:49:22;26.43;;;18.27;;
24259;SDS011;12384;48.112;18.418;2023-01-16T07:51:50;21.50;;;15.83;;
24259;SDS011;12384;48.112;18.418;2023-01-16T07:54:19;29.00;;;19.73;;
24259;SDS011;12384;48.112;18.418;2023-01-16T07:56:49;29.07;;;17.87;;
24259;SDS011;12384;48.112;18.418;2023-01-16T07:59:17;31.17;;;19.23;;
24259;SDS011;12384;48.112;18.418;2023-01-16T08:01:47;30.03;;;19.10;;
24259;SDS011;12384;48.112;18.418;2023-01-16T08:04:17;31.80;;;18.90;;
24259;SDS011;12384;48.112;18.418;2023-01-16T08:06:45;27.93;;;18.93;;
24259;SDS011;12384;48.112;18.418;2023-01-16T08:09:13;22.00;;;15.93;;
24259;SDS011;12384;48.112;18.418;2023-01-16T08:11:42;25.93;;;17.43;;
24259;SDS011;12384;48.112;18.418;2023-01-16T08:14:13;25.80;;;17.17;;
24259;SDS011;12384;48.112;18.418;2023-01-16T08:16:42;26.97;;;17.77;;
24259;SDS011;12384;48.112;18.418;2023-01-16T08:19:12;29.40;;;19.47;;
24259;SDS011;12384;48.112;18.418;2023-01-16T08:21:40;31.97;;;20.43;;
24259;SDS011;12384;48.112;18.418;2023-01-16T08:24:09;35.87;;;20.83;;
24259;SDS011;12384;48.112;18.418;2023-01-16T08:26:40;36.03;;;21.93;;
24259;SDS011;12384;48.112;18.418;2023-01-16T08:29:09;33.60;;;21.03;;
24259;SDS011;12384;48.112;18.418;2023-01-16T08:31:38;36.20;;;21.63;;
24259;SDS011;12384;48.112;18.418;2023-01-16T08:34:06;36.77;;;22.77;;
24259;SDS011;12384;48.112;18.418;2023-01-16T08:36:36;42.23;;;21.37;;
24259;SDS011;12384;48.112;18.418;2023-01-16T08:39:04;33.43;;;21.87;;
24259;SDS011;12384;48.112;18.418;2023-01-16T08:41:33;30.70;;;20.43;;
24259;SDS011;12384;48.112;18.418;2023-01-16T08:44:19;42.23;;;22.03;;
24259;SDS011;12384;48.112;18.418;2023-01-16T08:47:05;34.63;;;22.10;;
24259;SDS011;12384;48.112;18.418;2023-01-16T08:49:56;37.37;;;22.17;;
24259;SDS011;12384;48.112;18.418;2023-01-16T08:52:43;37.50;;;22.73;;
24259;SDS011;12384;48.112;18.418;2023-01-16T08:55:12;37.83;;;22.60;;
24259;SDS011;12384;48.112;18.418;2023-01-16T08:57:41;35.03;;;21.97;;
24259;SDS011;12384;48.112;18.418;2023-01-16T09:00:09;37.40;;;21.30;;
24259;SDS011;12384;48.112;18.418;2023-01-16T09:02:38;35.93;;;21.60;;
24259;SDS011;12384;48.112;18.418;2023-01-16T09:05:07;31.53;;;20.70;;
24259;SDS011;12384;48.112;18.418;2023-01-16T09:07:35;44.83;;;26.13;;
24259;SDS011;12384;48.112;18.418;2023-01-16T09:10:05;44.23;;;26.23;;
24259;SDS011;12384;48.112;18.418;2023-01-16T09:12:34;44.03;;;25.57;;
24259;SDS011;12384;48.112;18.418;2023-01-16T09:15:20;36.00;;;22.47;;
24259;SDS011;12384;48.112;18.418;2023-01-16T09:17:48;43.73;;;26.33;;
24259;SDS011;12384;48.112;18.418;2023-01-16T09:20:17;47.00;;;26.70;;
24259;SDS011;12384;48.112;18.418;2023-01-16T09:22:45;41.37;;;24.03;;
24259;SDS011;12384;48.112;18.418;2023-01-16T09:25:15;39.10;;;24.90;;
24259;SDS011;12384;48.112;18.418;2023-01-16T09:27:44;37.10;;;24.80;;
24259;SDS011;12384;48.112;18.418;2023-01-16T09:30:14;44.73;;;26.27;;
24259;SDS011;12384;48.112;18.418;2023-01-16T09:32:43;29.03;;;19.63;;
24259;SDS011;12384;48.112;18.418;2023-01-16T09:35:14;21.53;;;18.30;;
24259;SDS011;12384;48.112;18.418;2023-01-16T09:37:42;22.53;;;18.10;;
24259;SDS011;12384;48.112;18.418;2023-01-16T09:40:12;22.30;;;17.77;;
24259;SDS011;12384;48.112;18.418;2023-01-16T09:42:48;20.93;;;16.97;;
24259;SDS011;12384;48.112;18.418;2023-01-16T09:45:43;18.93;;;15.80;;
24259;SDS011;12384;48.112;18.418;2023-01-16T09:48:14;18.23;;;15.30;;
24259;SDS011;12384;48.112;18.418;2023-01-16T09:50:49;19.23;;;15.43;;
24259;SDS011;12384;48.112;18.418;2023-01-16T09:53:20;21.17;;;15.43;;
24259;SDS011;12384;48.112;18.418;2023-01-16T09:56:16;19.00;;;15.67;;
24259;SDS011;12384;48.112;18.418;2023-01-16T09:59:12;22.40;;;16.70;;
24259;SDS011;12384;48.112;18.418;2023-01-16T10:01:52;20.97;;;17.83;;
24259;SDS011;12384;48.112;18.418;2023-01-16T10:04:23;20.17;;;17.80;;
24259;SDS011;12384;48.112;18.418;2023-01-16T10:06:58;19.23;;;16.87;;
24259;SDS011;12384;48.112;18.418;2023-01-16T10:09:45;18.87;;;16.47;;
24259;SDS011;12384;48.112;18.418;2023-01-16T10:12:24;19.40;;;16.80;;
24259;SDS011;12384;48.112;18.418;2023-01-16T10:15:09;16.07;;;14.37;;
24259;SDS011;12384;48.112;18.418;2023-01-16T10:17:46;18.03;;;15.43;;
24259;SDS011;12384;48.112;18.418;2023-01-16T10:23:18;20.23;;;16.10;;
24259;SDS011;12384;48.112;18.418;2023-01-16T10:26:00;19.80;;;15.63;;
24259;SDS011;12384;48.112;18.418;2023-01-16T10:28:40;19.80;;;15.83;;
24259;SDS011;12384;48.112;18.418;2023-01-16T10:31:21;19.63;;;16.03;;
24259;SDS011;12384;48.112;18.418;2023-01-16T10:33:54;19.23;;;15.60;;
24259;SDS011;12384;48.112;18.418;2023-01-16T10:36:29;18.40;;;15.43;;
24259;SDS011;12384;48.112;18.418;2023-01-16T10:39:00;19.37;;;15.93;;
24259;SDS011;12384;48.112;18.418;2023-01-16T10:41:30;20.63;;;16.43;;
24259;SDS011;12384;48.112;18.418;2023-01-16T10:44:23;22.47;;;17.63;;
24259;SDS011;12384;48.112;18.418;2023-01-16T10:47:16;22.93;;;17.50;;
24259;SDS011;12384;48.112;18.418;2023-01-16T10:50:04;20.63;;;16.53;;
24259;SDS011;12384;48.112;18.418;2023-01-16T10:52:33;24.80;;;18.07;;
24259;SDS011;12384;48.112;18.418;2023-01-16T10:55:02;23.17;;;17.20;;
24259;SDS011;12384;48.112;18.418;2023-01-16T10:57:32;25.70;;;18.70;;
24259;SDS011;12384;48.112;18.418;2023-01-16T11:00:03;26.77;;;19.63;;
24259;SDS011;12384;48.112;18.418;2023-01-16T11:02:36;26.40;;;19.13;;
24259;SDS011;12384;48.112;18.418;2023-01-16T11:05:21;28.33;;;19.97;;
24259;SDS011;12384;48.112;18.418;2023-01-16T11:07:55;26.83;;;19.43;;
24259;SDS011;12384;48.112;18.418;2023-01-16T11:10:29;29.50;;;20.27;;
24259;SDS011;12384;48.112;18.418;2023-01-16T11:12:58;27.90;;;20.13;;
24259;SDS011;12384;48.112;18.418;2023-01-16T11:16:00;27.03;;;19.50;;
24259;SDS011;12384;48.112;18.418;2023-01-16T11:18:47;28.60;;;20.80;;
24259;SDS011;12384;48.112;18.418;2023-01-16T11:21:17;29.03;;;20.70;;
24259;SDS011;12384;48.112;18.418;2023-01-16T11:23:56;28.17;;;21.40;;
24259;SDS011;12384;48.112;18.418;2023-01-16T11:26:26;26.70;;;19.83;;
24259;SDS011;12384;48.112;18.418;2023-01-16T11:28:56;34.13;;;22.43;;
24259;SDS011;12384;48.112;18.418;2023-01-16T11:31:27;30.50;;;21.80;;
24259;SDS011;12384;48.112;18.418;2023-01-16T11:33:58;30.07;;;19.83;;
24259;SDS011;12384;48.112;18.418;2023-01-16T11:36:30;28.37;;;20.53;;
24259;SDS011;12384;48.112;18.418;2023-01-16T11:39:02;31.00;;;21.13;;
24259;SDS011;12384;48.112;18.418;2023-01-16T11:41:33;31.10;;;20.57;;
24259;SDS011;12384;48.112;18.418;2023-01-16T11:44:03;30.27;;;22.10;;
24259;SDS011;12384;48.112;18.418;2023-01-16T11:46:59;31.50;;;21.63;;
24259;SDS011;12384;48.112;18.418;2023-01-16T11:49:33;30.13;;;22.80;;
24259;SDS011;12384;48.112;18.418;2023-01-16T11:52:05;30.60;;;21.70;;
24259;SDS011;12384;48.112;18.418;2023-01-16T11:54:39;29.53;;;21.30;;
24259;SDS011;12384;48.112;18.418;2023-01-16T12:00:17;31.70;;;20.90;;
24259;SDS011;12384;48.112;18.418;2023-01-16T12:06:17;63.47;;;36.20;;
24259;SDS011;12384;48.112;18.418;2023-01-16T12:09:03;40.57;;;26.93;;
24259;SDS011;12384;48.112;18.418;2023-01-16T12:14:57;35.13;;;22.80;;
24259;SDS011;12384;48.112;18.418;2023-01-16T12:20:27;35.20;;;23.00;;
24259;SDS011;12384;48.112;18.418;2023-01-16T12:25:54;33.80;;;23.13;;
24259;SDS011;12384;48.112;18.418;2023-01-16T12:28:32;37.03;;;24.53;;
24259;SDS011;12384;48.112;18.418;2023-01-16T12:34:15;37.77;;;23.43;;
24259;SDS011;12384;48.112;18.418;2023-01-16T12:37:02;35.87;;;22.33;;
24259;SDS011;12384;48.112;18.418;2023-01-16T12:39:54;36.70;;;23.40;;
24259;SDS011;12384;48.112;18.418;2023-01-16T12:42:30;37.27;;;23.30;;
24259;SDS011;12384;48.112;18.418;2023-01-16T12:45:28;35.20;;;23.20;;
24259;SDS011;12384;48.112;18.418;2023-01-16T12:48:08;39.93;;;24.33;;
24259;SDS011;12384;48.112;18.418;2023-01-16T12:50:50;41.43;;;25.80;;
24259;SDS011;12384;48.112;18.418;2023-01-16T12:53:29;34.70;;;22.60;;
24259;SDS011;12384;48.112;18.418;2023-01-16T12:56:21;35.73;;;22.50;;
24259;SDS011;12384;48.112;18.418;2023-01-16T12:59:02;41.40;;;23.03;;
24259;SDS011;12384;48.112;18.418;2023-01-16T13:01:40;40.13;;;25.20;;
24259;SDS011;12384;48.112;18.418;2023-01-16T13:04:13;39.13;;;23.93;;
24259;SDS011;12384;48.112;18.418;2023-01-16T13:06:47;36.10;;;22.60;;
24259;SDS011;12384;48.112;18.418;2023-01-16T13:09:18;37.83;;;23.43;;
24259;SDS011;12384;48.112;18.418;2023-01-16T13:12:03;34.73;;;23.53;;
24259;SDS011;12384;48.112;18.418;2023-01-16T13:14:58;41.20;;;25.87;;
24259;SDS011;12384;48.112;18.418;2023-01-16T13:17:36;39.90;;;24.63;;
24259;SDS011;12384;48.112;18.418;2023-01-16T13:20:11;40.57;;;23.33;;
24259;SDS011;12384;48.112;18.418;2023-01-16T13:22:43;37.13;;;23.60;;
24259;SDS011;12384;48.112;18.418;2023-01-16T13:25:19;37.70;;;23.90;;
24259;SDS011;12384;48.112;18.418;2023-01-16T13:27:55;39.17;;;23.17;;
24259;SDS011;12384;48.112;18.418;2023-01-16T13:30:27;36.00;;;22.57;;
24259;SDS011;12384;48.112;18.418;2023-01-16T13:32:57;40.80;;;26.43;;
24259;SDS011;12384;48.112;18.418;2023-01-16T13:35:30;39.37;;;24.57;;
24259;SDS011;12384;48.112;18.418;2023-01-16T13:38:10;38.20;;;24.23;;
24259;SDS011;12384;48.112;18.418;2023-01-16T13:41:03;36.50;;;22.33;;
24259;SDS011;12384;48.112;18.418;2023-01-16T13:43:45;38.53;;;23.20;;
24259;SDS011;12384;48.112;18.418;2023-01-16T13:46:36;39.23;;;22.67;;
24259;SDS011;12384;48.112;18.418;2023-01-16T13:49:05;37.13;;;23.03;;
24259;SDS011;12384;48.112;18.418;2023-01-16T13:51:42;37.23;;;24.70;;
24259;SDS011;12384;48.112;18.418;2023-01-16T13:54:13;36.93;;;22.47;;
24259;SDS011;12384;48.112;18.418;2023-01-16T13:56:55;38.53;;;23.30;;
24259;SDS011;12384;48.112;18.418;2023-01-16T13:59:33;36.43;;;22.30;;
24259;SDS011;12384;48.112;18.418;2023-01-16T14:02:24;39.70;;;23.37;;
24259;SDS011;12384;48.112;18.418;2023-01-16T14:07:48;36.20;;;23.10;;
24259;SDS011;12384;48.112;18.418;2023-01-16T14:10:39;36.80;;;24.80;;
24259;SDS011;12384;48.112;18.418;2023-01-16T14:13:18;38.63;;;25.13;;
24259;SDS011;12384;48.112;18.418;2023-01-16T14:15:52;41.43;;;24.13;;
24259;SDS011;12384;48.112;18.418;2023-01-16T14:18:40;38.17;;;23.50;;
24259;SDS011;12384;48.112;18.418;2023-01-16T14:21:13;39.13;;;24.50;;
24259;SDS011;12384;48.112;18.418;2023-01-16T14:23:47;35.93;;;25.30;;
24259;SDS011;12384;48.112;18.418;2023-01-16T14:26:38;38.40;;;23.93;;
24259;SDS011;12384;48.112;18.418;2023-01-16T14:29:13;40.10;;;26.50;;
24259;SDS011;12384;48.112;18.418;2023-01-16T14:31:52;39.53;;;25.23;;
24259;SDS011;12384;48.112;18.418;2023-01-16T14:34:24;35.73;;;23.70;;
24259;SDS011;12384;48.112;18.418;2023-01-16T14:36:59;33.80;;;22.97;;
24259;SDS011;12384;48.112;18.418;2023-01-16T14:39:33;35.17;;;23.27;;
24259;SDS011;12384;48.112;18.418;2023-01-16T14:42:05;35.67;;;22.97;;
24259;SDS011;12384;48.112;18.418;2023-01-16T14:44:59;36.67;;;24.23;;
24259;SDS011;12384;48.112;18.418;2023-01-16T14:48:08;34.27;;;22.93;;
24259;SDS011;12384;48.112;18.418;2023-01-16T14:51:00;32.53;;;22.53;;
24259;SDS011;12384;48.112;18.418;2023-01-16T14:53:57;34.87;;;21.53;;
24259;SDS011;12384;48.112;18.418;2023-01-16T14:56:42;30.97;;;21.33;;
24259;SDS011;12384;48.112;18.418;2023-01-16T14:59:13;30.57;;;21.50;;
24259;SDS011;12384;48.112;18.418;2023-01-16T15:01:46;35.60;;;22.60;;
24259;SDS011;12384;48.112;18.418;2023-01-16T15:04:39;29.83;;;20.73;;
24259;SDS011;12384;48.112;18.418;2023-01-16T15:07:14;28.17;;;19.30;;
24259;SDS011;12384;48.112;18.418;2023-01-16T15:09:44;31.63;;;21.13;;
24259;SDS011;12384;48.112;18.418;2023-01-16T15:12:13;29.97;;;20.43;;
24259;SDS011;12384;48.112;18.418;2023-01-16T15:14:53;28.03;;;20.10;;
24259;SDS011;12384;48.112;18.418;2023-01-16T15:17:24;31.17;;;20.17;;